SAZT/TDL METAR and TAF weather

Enter ICAO airport designator
Station Type Date Time Source
SAZT METAR 2019/10/18 16:49 UTC NOAA

SAZT 181649Z 23014G25KT 9999 SCT023 17/08 Q1019


Station Type Date Time Source
SAZT Decoded METAR 2019/10/18 16:49 UTC NOAA

Tandil Aerodrome, Argentina (SAZT) 37-14S 059-15W 175M
Oct 18, 2019 - 12:49 PM EDT / 2019.10.18 1649 UTC
Wind: from the SW (230 degrees) at 16 MPH (14 KT) gusting to 29 MPH (25 KT):0
Visibility: greater than 7 mile(s):0
Sky conditions: partly cloudy
Temperature: 62 F (17 C)
Dew Point: 46 F (8 C)
Relative Humidity: 55%
Pressure (altimeter): 30.09 in. Hg (1019 hPa)
ob: SAZT 181649Z 23014G25KT 9999 SCT023 17/08 Q1019
cycle: 17

Station Type Date Time Source
SAZT TAF UTC NOAA

Error!

Example: see airport list